Time;durP1;ratioP1;P1;durP2;ratioP2;P2;SDS_P1;SDS_P2;PMS_P1;PMS_P2;Temp;Humidity;BMP_temperature;BMP_pressure;BME280_temperature;BME280_humidity;BME280_pressure;Samples;Min_cycle;Max_cycle;Signal;HPM_P1;HPM_P2
2021/03/28 00:01:30;;;;;;;11.02;3.50;;;;;;;;;;4986052;28;20072;-88
2021/03/28 00:04:16;;;;;;;9.30;3.53;;;;;;;;;;4987404;28;20030;-87
2021/03/28 00:07:04;;;;;;;10.77;3.15;;;;;;;;;;4978535;28;20034;-86
2021/03/28 00:09:53;;;;;;;10.55;3.20;;;;;;;;;;4986901;28;20030;-86
2021/03/28 00:12:39;;;;;;;11.45;3.45;;;;;;;;;;4983446;28;20030;-86
2021/03/28 00:15:24;;;;;;;8.52;2.88;;;;;;;;;;4985518;28;20026;-85
2021/03/28 00:18:22;;;;;;;11.88;4.18;;;;;;;;;;4972584;28;20378;-87
2021/03/28 00:21:21;;;;;;;6.65;2.97;;;;;;;;;;4979817;28;20105;-85
2021/03/28 00:24:20;;;;;;;10.15;3.05;;;;;;;;;;4984737;28;20027;-86
2021/03/28 00:27:15;;;;;;;12.55;3.50;;;;;;;;;;4987590;28;20029;-87
2021/03/28 00:30:05;;;;;;;10.98;3.50;;;;;;;;;;4985948;28;20065;-87
2021/03/28 00:32:53;;;;;;;7.70;2.40;;;;;;;;;;4999495;28;20018;-87
2021/03/28 00:35:55;;;;;;;8.23;2.50;;;;;;;;;;4970246;28;20026;-88
2021/03/28 00:38:40;;;;;;;10.32;3.45;;;;;;;;;;5001081;28;20032;-86
2021/03/28 00:41:44;;;;;;;9.95;3.10;;;;;;;;;;4994361;28;20026;-86
2021/03/28 00:44:31;;;;;;;7.63;3.30;;;;;;;;;;4987274;28;20038;-87
2021/03/28 00:47:24;;;;;;;8.90;2.92;;;;;;;;;;4987286;28;20414;-88
2021/03/28 00:50:22;;;;;;;10.23;2.72;;;;;;;;;;4966789;28;20034;-87
2021/03/28 00:53:08;;;;;;;8.48;2.88;;;;;;;;;;4990770;28;20026;-86
2021/03/28 00:55:55;;;;;;;9.50;4.03;;;;;;;;;;4988546;28;20128;-87
2021/03/28 00:58:40;;;;;;;13.07;2.95;;;;;;;;;;4982980;28;20085;-87
2021/03/28 01:01:27;;;;;;;8.23;3.20;;;;;;;;;;4969272;28;20030;-88
2021/03/28 01:04:33;;;;;;;9.05;3.20;;;;;;;;;;4986433;28;20038;-87
2021/03/28 01:07:23;;;;;;;9.27;2.67;;;;;;;;;;4983685;28;20058;-88
2021/03/28 01:10:27;;;;;;;11.88;3.85;;;;;;;;;;4981285;28;20018;-90
2021/03/28 01:13:31;;;;;;;6.93;2.63;;;;;;;;;;4978231;28;20378;-92
2021/03/28 01:16:20;;;;;;;8.05;2.97;;;;;;;;;;4978736;28;20100;-87
2021/03/28 01:19:15;;;;;;;8.73;2.90;;;;;;;;;;4991768;28;20247;-86
2021/03/28 01:22:00;;;;;;;8.48;2.42;;;;;;;;;;4992046;28;20039;-86
2021/03/28 01:24:48;;;;;;;8.77;2.67;;;;;;;;;;4978771;28;20188;-86
2021/03/28 01:27:35;;;;;;;6.60;2.60;;;;;;;;;;4997680;28;20030;-86
2021/03/28 01:30:23;;;;;;;14.38;3.00;;;;;;;;;;4978441;28;20030;-86
2021/03/28 01:33:17;;;;;;;9.68;2.83;;;;;;;;;;4974461;28;20454;-87
2021/03/28 01:36:06;;;;;;;7.82;2.67;;;;;;;;;;4984010;28;20026;-87
2021/03/28 01:38:57;;;;;;;8.93;2.88;;;;;;;;;;4979485;28;20105;-86
2021/03/28 01:41:47;;;;;;;9.00;3.20;;;;;;;;;;4989758;28;20026;-87
2021/03/28 01:44:39;;;;;;;6.80;2.55;;;;;;;;;;4980981;28;20034;-87
2021/03/28 01:47:28;;;;;;;9.52;2.92;;;;;;;;;;4980408;28;20129;-88
2021/03/28 01:50:22;;;;;;;7.45;3.38;;;;;;;;;;4977578;28;20385;-87
2021/03/28 01:53:16;;;;;;;7.20;2.95;;;;;;;;;;4989451;28;20476;-88
2021/03/28 01:56:07;;;;;;;7.75;2.72;;;;;;;;;;4977084;28;20026;-87
2021/03/28 01:58:53;;;;;;;9.73;2.90;;;;;;;;;;4995317;28;20103;-89
2021/03/28 02:01:42;;;;;;;9.60;3.13;;;;;;;;;;4990183;28;20453;-88
2021/03/28 02:04:46;;;;;;;9.50;3.33;;;;;;;;;;4977505;28;20049;-87
2021/03/28 02:07:40;;;;;;;7.70;3.08;;;;;;;;;;4998560;28;20080;-87
2021/03/28 02:10:28;;;;;;;13.45;3.47;;;;;;;;;;4981346;28;20037;-85
2021/03/28 02:13:32;;;;;;;10.45;2.67;;;;;;;;;;4982006;28;20377;-85
2021/03/28 02:16:28;;;;;;;7.85;2.75;;;;;;;;;;4971698;28;20053;-87
2021/03/28 02:19:16;;;;;;;15.05;3.28;;;;;;;;;;4981127;28;20031;-84
2021/03/28 02:22:20;;;;;;;11.95;3.15;;;;;;;;;;4985647;28;20018;-84
2021/03/28 02:25:11;;;;;;;8.98;2.75;;;;;;;;;;4990576;28;20030;-84
2021/03/28 02:28:15;;;;;;;11.48;3.00;;;;;;;;;;4994097;28;20066;-86
2021/03/28 02:31:13;;;;;;;8.35;2.83;;;;;;;;;;4978465;28;20667;-85
2021/03/28 02:34:27;;;;;;;9.23;2.55;;;;;;;;;;4985513;28;20042;-86
2021/03/28 02:37:19;;;;;;;9.85;3.17;;;;;;;;;;4989966;28;20023;-85
2021/03/28 02:40:28;;;;;;;7.40;2.60;;;;;;;;;;4983467;28;20439;-86
2021/03/28 02:43:36;;;;;;;13.35;3.50;;;;;;;;;;4957932;28;20110;-86
2021/03/28 02:46:27;;;;;;;8.57;2.88;;;;;;;;;;4983338;28;20735;-86
2021/03/28 02:49:33;;;;;;;10.98;2.88;;;;;;;;;;4991942;28;20113;-85
2021/03/28 02:52:18;;;;;;;8.30;2.28;;;;;;;;;;4981530;28;20370;-84
2021/03/28 02:55:11;;;;;;;8.75;2.20;;;;;;;;;;4995655;28;20512;-86
2021/03/28 02:58:11;;;;;;;8.02;2.40;;;;;;;;;;4989914;28;20054;-86
2021/03/28 03:01:18;;;;;;;8.85;3.38;;;;;;;;;;4976839;28;20045;-88
2021/03/28 03:04:31;;;;;;;10.00;2.78;;;;;;;;;;4981348;28;20035;-88
2021/03/28 03:07:55;;;;;;;8.98;2.40;;;;;;;;;;4995549;28;20080;-88
2021/03/28 03:10:58;;;;;;;8.60;2.42;;;;;;;;;;4909636;29;20086;-88
2021/03/28 03:14:09;;;;;;;9.35;2.17;;;;;;;;;;4919372;29;20026;-89
2021/03/28 03:17:04;;;;;;;13.45;2.83;;;;;;;;;;4988305;28;20451;-88
2021/03/28 03:19:52;;;;;;;6.13;2.47;;;;;;;;;;4993908;28;20034;-89
2021/03/28 03:22:50;;;;;;;7.10;2.30;;;;;;;;;;4981158;28;20022;-88
2021/03/28 03:25:54;;;;;;;10.00;2.30;;;;;;;;;;4998728;28;20061;-88
2021/03/28 03:28:58;;;;;;;11.73;2.25;;;;;;;;;;4992665;28;20484;-89
2021/03/28 03:32:22;;;;;;;8.85;3.08;;;;;;;;;;4984005;28;20494;-86
2021/03/28 03:35:27;;;;;;;7.03;2.97;;;;;;;;;;4937366;28;20035;-86
2021/03/28 03:38:38;;;;;;;6.35;2.10;;;;;;;;;;4924897;28;20031;-85
2021/03/28 03:41:26;;;;;;;7.60;2.28;;;;;;;;;;4977615;28;20037;-87
2021/03/28 03:44:17;;;;;;;4.97;1.90;;;;;;;;;;4992514;28;20022;-87
2021/03/28 03:47:22;;;;;;;9.75;2.55;;;;;;;;;;4987707;28;20026;-86
2021/03/28 03:50:12;;;;;;;5.72;2.28;;;;;;;;;;4992812;28;20110;-86
2021/03/28 03:53:13;;;;;;;4.68;2.40;;;;;;;;;;4993902;28;20019;-85
2021/03/28 03:55:58;;;;;;;6.20;2.47;;;;;;;;;;4996273;28;20033;-85
2021/03/28 03:58:56;;;;;;;6.65;1.92;;;;;;;;;;4994474;28;20160;-86
2021/03/28 04:01:41;;;;;;;5.95;2.22;;;;;;;;;;4985377;28;20021;-88
2021/03/28 04:04:45;;;;;;;10.82;2.60;;;;;;;;;;4981563;28;20432;-87
2021/03/28 04:07:49;;;;;;;8.98;2.42;;;;;;;;;;4978283;28;20540;-88
2021/03/28 04:10:59;;;;;;;7.13;2.13;;;;;;;;;;4991385;28;20018;-85
2021/03/28 04:14:03;;;;;;;6.18;2.00;;;;;;;;;;4996820;28;20030;-86
2021/03/28 04:16:58;;;;;;;5.95;2.35;;;;;;;;;;4994501;28;20124;-88
2021/03/28 04:20:02;;;;;;;6.53;2.00;;;;;;;;;;4984050;28;20088;-86
2021/03/28 04:23:06;;;;;;;5.72;1.75;;;;;;;;;;4998373;28;20022;-86
2021/03/28 04:25:58;;;;;;;10.05;2.50;;;;;;;;;;4980767;28;20021;-87
2021/03/28 04:28:46;;;;;;;4.90;1.80;;;;;;;;;;4991710;28;20022;-85
2021/03/28 04:31:31;;;;;;;9.90;2.60;;;;;;;;;;4998429;28;20037;-85
2021/03/28 04:34:22;;;;;;;11.68;2.65;;;;;;;;;;5002038;28;20121;-86
2021/03/28 04:37:21;;;;;;;7.50;2.22;;;;;;;;;;5000261;28;20057;-85
2021/03/28 04:40:18;;;;;;;7.15;2.17;;;;;;;;;;4992608;28;20436;-84
2021/03/28 04:43:23;;;;;;;8.13;2.90;;;;;;;;;;4997100;28;20563;-85
2021/03/28 04:46:14;;;;;;;5.78;2.30;;;;;;;;;;4980000;28;20045;-85
2021/03/28 04:49:06;;;;;;;8.63;3.35;;;;;;;;;;4994907;28;20022;-84
2021/03/28 04:51:57;;;;;;;10.13;2.70;;;;;;;;;;4979090;28;20029;-84
2021/03/28 04:54:45;;;;;;;6.43;2.17;;;;;;;;;;5001459;28;20069;-84
2021/03/28 04:57:46;;;;;;;9.95;2.47;;;;;;;;;;4991761;28;20040;-83
2021/03/28 05:00:43;;;;;;;7.18;2.53;;;;;;;;;;4963991;28;20015;-86
2021/03/28 05:03:44;;;;;;;6.32;2.20;;;;;;;;;;4962313;28;20061;-85
2021/03/28 05:06:32;;;;;;;6.38;2.13;;;;;;;;;;4958875;28;20019;-86
2021/03/28 05:09:36;;;;;;;6.15;2.25;;;;;;;;;;4953922;28;20133;-84
2021/03/28 05:12:33;;;;;;;12.43;2.33;;;;;;;;;;4959036;28;20033;-85
2021/03/28 05:15:24;;;;;;;12.32;2.47;;;;;;;;;;4955374;28;20434;-86
2021/03/28 05:18:28;;;;;;;9.52;2.90;;;;;;;;;;4947508;28;20070;-85
2021/03/28 05:21:31;;;;;;;10.90;2.63;;;;;;;;;;4953695;28;20428;-86
2021/03/28 05:24:23;;;;;;;8.57;2.30;;;;;;;;;;4951525;28;20038;-85
2021/03/28 05:27:08;;;;;;;8.93;2.45;;;;;;;;;;4958806;28;20110;-85
2021/03/28 05:30:04;;;;;;;6.50;2.20;;;;;;;;;;4956060;28;20019;-86
2021/03/28 05:32:57;;;;;;;11.52;2.30;;;;;;;;;;4957494;28;20421;-84
2021/03/28 05:35:54;;;;;;;8.77;2.42;;;;;;;;;;4952433;28;20033;-84
2021/03/28 05:38:40;;;;;;;8.43;2.67;;;;;;;;;;4963992;28;20353;-86
2021/03/28 05:41:44;;;;;;;6.15;2.28;;;;;;;;;;4956715;28;20018;-84
2021/03/28 05:44:48;;;;;;;7.10;2.60;;;;;;;;;;4943723;28;20054;-85
2021/03/28 05:47:41;;;;;;;9.65;2.60;;;;;;;;;;4945539;28;20045;-85
2021/03/28 05:50:29;;;;;;;8.90;2.90;;;;;;;;;;4946690;28;20081;-85
2021/03/28 05:53:23;;;;;;;8.70;2.30;;;;;;;;;;4960268;28;20025;-86
2021/03/28 05:56:27;;;;;;;9.18;2.65;;;;;;;;;;4963574;28;20052;-84
2021/03/28 05:59:33;;;;;;;7.68;2.55;;;;;;;;;;4990573;28;20053;-83
2021/03/28 06:02:37;;;;;;;9.52;2.45;;;;;;;;;;4973484;28;20041;-84
2021/03/28 06:05:22;;;;;;;9.25;2.47;;;;;;;;;;4965145;28;21089;-84
2021/03/28 06:08:16;;;;;;;7.32;2.50;;;;;;;;;;4989912;28;20392;-85
2021/03/28 06:11:02;;;;;;;6.20;2.10;;;;;;;;;;4978950;28;20165;-85
2021/03/28 06:13:47;;;;;;;6.25;2.20;;;;;;;;;;4996632;28;20503;-84
2021/03/28 06:16:38;;;;;;;7.57;2.70;;;;;;;;;;4978307;28;20446;-85
2021/03/28 06:19:52;;;;;;;8.23;2.75;;;;;;;;;;4988514;28;20038;-84
2021/03/28 06:22:55;;;;;;;10.07;3.55;;;;;;;;;;4983938;28;20109;-83
2021/03/28 06:25:59;;;;;;;8.93;2.60;;;;;;;;;;4990749;28;20046;-87
2021/03/28 06:29:02;;;;;;;10.30;2.35;;;;;;;;;;4990659;28;20328;-84
2021/03/28 06:31:47;;;;;;;11.77;3.05;;;;;;;;;;4974117;28;20487;-83
2021/03/28 06:34:51;;;;;;;6.25;2.22;;;;;;;;;;4980041;28;20030;-83
2021/03/28 06:38:01;;;;;;;6.07;2.50;;;;;;;;;;4983249;28;20480;-86
2021/03/28 06:40:47;;;;;;;;;;;;;;;;;;4973250;28;20117;-86
2021/03/28 06:43:35;;;;;;;12.50;2.78;;;;;;;;;;4963848;28;20371;-86
2021/03/28 06:46:45;;;;;;;9.73;2.08;;;;;;;;;;4982818;28;20034;-83
2021/03/28 06:49:49;;;;;;;9.23;2.75;;;;;;;;;;4980172;28;20052;-86
2021/03/28 06:52:53;;;;;;;20.23;3.65;;;;;;;;;;4962164;28;20022;-85
2021/03/28 06:55:41;;;;;;;8.85;2.67;;;;;;;;;;4976376;28;20029;-86
2021/03/28 06:58:46;;;;;;;7.97;2.83;;;;;;;;;;4981004;28;20109;-86
2021/03/28 07:01:43;;;;;;;9.50;2.40;;;;;;;;;;4979925;28;20405;-87
2021/03/28 07:04:34;;;;;;;8.55;3.63;;;;;;;;;;4994001;28;20120;-81
2021/03/28 07:07:28;;;;;;;8.00;2.95;;;;;;;;;;4979191;28;20022;-81
2021/03/28 07:10:24;;;;;;;6.93;2.47;;;;;;;;;;4983828;28;20600;-82
2021/03/28 07:13:13;;;;;;;8.25;2.53;;;;;;;;;;4980892;28;20056;-83
2021/03/28 07:16:01;;;;;;;14.30;3.13;;;;;;;;;;4998220;28;20023;-84
2021/03/28 07:18:46;;;;;;;10.95;2.92;;;;;;;;;;4988095;28;20416;-83
2021/03/28 07:21:50;;;;;;;7.18;3.03;;;;;;;;;;4997642;28;20030;-83
2021/03/28 07:24:54;;;;;;;8.13;3.10;;;;;;;;;;4998052;28;20708;-81
2021/03/28 07:27:57;;;;;;;7.68;2.53;;;;;;;;;;4989658;28;20084;-83
2021/03/28 07:31:02;;;;;;;10.18;2.83;;;;;;;;;;4989337;28;20050;-83
2021/03/28 07:33:55;;;;;;;9.55;2.60;;;;;;;;;;4999410;28;20026;-82
2021/03/28 07:36:59;;;;;;;5.65;2.45;;;;;;;;;;4991719;28;20026;-82
2021/03/28 07:43:20;;;;;;;5.00;2.28;;;;;;;;;;4975544;28;20393;-82
2021/03/28 07:46:08;;;;;;;9.82;3.13;;;;;;;;;;4999913;28;20687;-82
2021/03/28 07:48:59;;;;;;;8.07;2.63;;;;;;;;;;4986443;28;20022;-82
2021/03/28 07:52:04;;;;;;;6.40;2.35;;;;;;;;;;4985919;28;20100;-88
2021/03/28 07:54:52;;;;;;;7.35;2.70;;;;;;;;;;4984178;28;20472;-86
2021/03/28 07:57:43;;;;;;;8.15;2.88;;;;;;;;;;5003432;28;20453;-82
2021/03/28 08:00:35;;;;;;;10.85;3.25;;;;;;;;;;4988544;28;20427;-83
2021/03/28 08:03:39;;;;;;;7.90;2.60;;;;;;;;;;4988781;28;20042;-85
2021/03/28 08:06:41;;;;;;;6.05;2.30;;;;;;;;;;4991024;28;20472;-85
2021/03/28 08:09:36;;;;;;;10.35;3.00;;;;;;;;;;4994751;28;20034;-84
2021/03/28 08:12:27;;;;;;;7.00;2.80;;;;;;;;;;4986427;28;20066;-84
2021/03/28 08:15:21;;;;;;;6.13;2.05;;;;;;;;;;4998604;28;20468;-84
2021/03/28 08:18:17;;;;;;;7.40;3.05;;;;;;;;;;5004569;28;20061;-86
2021/03/28 08:21:05;;;;;;;8.73;3.50;;;;;;;;;;4998539;28;20392;-84
2021/03/28 08:23:57;;;;;;;6.23;2.63;;;;;;;;;;5001429;28;20023;-86
2021/03/28 08:26:50;;;;;;;10.48;3.03;;;;;;;;;;4978396;28;20081;-85
2021/03/28 08:29:54;;;;;;;9.10;3.25;;;;;;;;;;4979077;28;20022;-82
2021/03/28 08:32:39;;;;;;;8.80;2.70;;;;;;;;;;4982199;28;20392;-85
2021/03/28 08:35:42;;;;;;;8.63;2.70;;;;;;;;;;4987709;28;20133;-87
2021/03/28 08:38:28;;;;;;;8.77;2.95;;;;;;;;;;4984171;28;20468;-82
2021/03/28 08:41:34;;;;;;;13.25;3.53;;;;;;;;;;4974299;28;20461;-83
2021/03/28 08:44:45;;;;;;;7.57;2.88;;;;;;;;;;4994136;28;20068;-83
2021/03/28 08:47:33;;;;;;;8.80;3.05;;;;;;;;;;4995609;28;20041;-82
2021/03/28 08:50:21;;;;;;;8.95;2.65;;;;;;;;;;4980027;28;20039;-84
2021/03/28 08:53:19;;;;;;;9.15;3.40;;;;;;;;;;5000290;28;20119;-89
2021/03/28 08:56:13;;;;;;;9.10;2.88;;;;;;;;;;4983858;28;20030;-86
2021/03/28 08:59:05;;;;;;;10.98;2.58;;;;;;;;;;5000884;28;20583;-86
2021/03/28 09:01:59;;;;;;;6.85;2.92;;;;;;;;;;4982408;28;20096;-83
2021/03/28 09:04:57;;;;;;;7.38;2.33;;;;;;;;;;4987018;28;20034;-82
2021/03/28 09:07:42;;;;;;;7.50;2.58;;;;;;;;;;4986956;28;20063;-86
2021/03/28 09:10:27;;;;;;;11.73;3.80;;;;;;;;;;4992399;28;20388;-83
2021/03/28 09:13:13;;;;;;;10.00;2.67;;;;;;;;;;5000266;28;20034;-87
2021/03/28 09:16:16;;;;;;;5.75;2.08;;;;;;;;;;5000436;28;20038;-85
2021/03/28 09:19:25;;;;;;;7.05;2.97;;;;;;;;;;4990540;28;20085;-83
2021/03/28 09:22:42;;;;;;;5.45;2.20;;;;;;;;;;4963380;28;20489;-85
2021/03/28 09:25:28;;;;;;;8.52;2.50;;;;;;;;;;4951429;28;20049;-83
2021/03/28 09:28:32;;;;;;;4.88;2.47;;;;;;;;;;4999710;28;20029;-83
2021/03/28 09:31:23;;;;;;;5.18;2.25;;;;;;;;;;4985018;28;20026;-85
2021/03/28 09:34:17;;;;;;;5.78;2.10;;;;;;;;;;4985959;28;20473;-81
2021/03/28 09:37:18;;;;;;;6.60;1.98;;;;;;;;;;4995793;28;20498;-82
2021/03/28 09:40:03;;;;;;;7.72;2.45;;;;;;;;;;4985288;28;20065;-86
2021/03/28 09:43:04;;;;;;;5.68;2.38;;;;;;;;;;4998193;28;20050;-79
2021/03/28 09:45:58;;;;;;;8.40;2.72;;;;;;;;;;4987943;28;20149;-88
2021/03/28 09:48:53;;;;;;;7.63;2.65;;;;;;;;;;4983170;28;20034;-84
2021/03/28 09:51:47;;;;;;;6.03;2.22;;;;;;;;;;5003277;28;20141;-82
2021/03/28 09:54:39;;;;;;;9.65;3.03;;;;;;;;;;4985769;28;20030;-77
2021/03/28 09:57:43;;;;;;;4.60;2.50;;;;;;;;;;4988273;28;20042;-80
2021/03/28 10:00:35;;;;;;;8.15;3.25;;;;;;;;;;5001257;28;20050;-85
2021/03/28 10:03:36;;;;;;;4.20;2.17;;;;;;;;;;4996577;28;20027;-82
2021/03/28 10:06:22;;;;;;;4.25;2.58;;;;;;;;;;4998286;28;20143;-84
2021/03/28 10:09:12;;;;;;;4.32;2.03;;;;;;;;;;4983484;28;20030;-83
2021/03/28 10:12:01;;;;;;;4.15;2.25;;;;;;;;;;4975188;28;20053;-84
2021/03/28 10:15:14;;;;;;;7.22;2.38;;;;;;;;;;4965203;28;20031;-86
2021/03/28 10:18:03;;;;;;;7.65;2.90;;;;;;;;;;4994214;28;20472;-80
2021/03/28 10:20:57;;;;;;;9.77;2.90;;;;;;;;;;4994962;28;20029;-81
2021/03/28 10:24:01;;;;;;;7.75;2.40;;;;;;;;;;4989398;28;20020;-81
2021/03/28 10:27:16;;;;;;;7.50;2.25;;;;;;;;;;5003560;28;20040;-83
2021/03/28 10:30:11;;;;;;;5.63;2.13;;;;;;;;;;4929426;28;20053;-86
2021/03/28 10:33:01;;;;;;;6.18;1.90;;;;;;;;;;4989202;28;20064;-83
2021/03/28 10:36:03;;;;;;;5.30;2.13;;;;;;;;;;4988992;28;20118;-82
2021/03/28 10:38:56;;;;;;;6.88;2.25;;;;;;;;;;4996389;28;20137;-81
2021/03/28 10:41:41;;;;;;;14.65;3.28;;;;;;;;;;4985428;28;20049;-82
2021/03/28 10:44:38;;;;;;;5.70;2.42;;;;;;;;;;5001565;28;20049;-79
2021/03/28 10:47:24;;;;;;;6.15;2.85;;;;;;;;;;4990904;28;20113;-85
2021/03/28 10:50:09;;;;;;;6.35;2.55;;;;;;;;;;4993016;28;20790;-81
2021/03/28 10:53:03;;;;;;;6.68;2.40;;;;;;;;;;5003376;28;20023;-83
2021/03/28 10:56:06;;;;;;;6.03;2.60;;;;;;;;;;4998138;28;20034;-91
2021/03/28 10:59:07;;;;;;;5.75;2.15;;;;;;;;;;4995395;28;20045;-90
2021/03/28 11:02:20;;;;;;;7.97;2.53;;;;;;;;;;4992610;28;20015;-86
2021/03/28 11:05:23;;;;;;;5.43;1.65;;;;;;;;;;4990581;28;20018;-94
2021/03/28 11:08:15;;;;;;;8.50;2.70;;;;;;;;;;5012970;28;20022;-90
2021/03/28 11:11:21;;;;;;;8.00;2.40;;;;;;;;;;4992544;28;20076;-90
2021/03/28 11:14:09;;;;;;;6.78;2.50;;;;;;;;;;4989177;28;20037;-88
2021/03/28 11:17:02;;;;;;;12.68;2.80;;;;;;;;;;5000509;28;20041;-83
2021/03/28 11:19:59;;;;;;;8.30;3.80;;;;;;;;;;4987583;28;20038;-79
2021/03/28 11:22:49;;;;;;;7.60;3.05;;;;;;;;;;4988499;28;20528;-83
2021/03/28 11:25:54;;;;;;;7.28;2.67;;;;;;;;;;4986742;28;20033;-83
2021/03/28 11:28:45;;;;;;;6.28;2.42;;;;;;;;;;4988619;28;20108;-84
2021/03/28 11:31:49;;;;;;;8.13;2.25;;;;;;;;;;5004912;28;20463;-87
2021/03/28 11:34:40;;;;;;;5.50;2.22;;;;;;;;;;4988519;28;20030;-85
2021/03/28 11:37:34;;;;;;;7.18;2.53;;;;;;;;;;4989408;28;20473;-84
2021/03/28 11:40:25;;;;;;;6.22;2.63;;;;;;;;;;4989266;28;20026;-84
2021/03/28 11:43:11;;;;;;;8.57;2.42;;;;;;;;;;4988050;28;20064;-81
2021/03/28 11:46:05;;;;;;;6.90;2.72;;;;;;;;;;4993367;28;20540;-83
2021/03/28 11:48:53;;;;;;;6.90;2.50;;;;;;;;;;4980075;28;20439;-82
2021/03/28 11:51:39;;;;;;;7.63;2.60;;;;;;;;;;4993173;28;20050;-83
2021/03/28 11:54:27;;;;;;;6.72;2.78;;;;;;;;;;4989127;28;20597;-81
2021/03/28 11:57:27;;;;;;;7.55;2.50;;;;;;;;;;4995759;28;20030;-80
2021/03/28 12:00:12;;;;;;;;;;;;;;;;;;4961072;28;20035;-79
2021/03/28 12:03:16;;;;;;;7.10;1.98;;;;;;;;;;4969177;28;20008;-83
2021/03/28 12:06:16;;;;;;;6.63;2.17;;;;;;;;;;4958557;28;20035;-82
2021/03/28 12:09:02;;;;;;;7.40;2.88;;;;;;;;;;4969932;28;20054;-82
2021/03/28 12:11:49;;;;;;;7.72;2.20;;;;;;;;;;4947742;28;20410;-80
2021/03/28 12:14:35;;;;;;;7.88;1.90;;;;;;;;;;4972464;28;20030;-81
2021/03/28 12:17:22;;;;;;;7.10;2.45;;;;;;;;;;4966201;28;20031;-82
2021/03/28 12:23:40;;;;;;;5.35;2.55;;;;;;;;;;4951886;28;20066;-82
2021/03/28 12:26:28;;;;;;;6.32;1.98;;;;;;;;;;4951873;28;20038;-83
2021/03/28 12:29:33;;;;;;;6.38;2.10;;;;;;;;;;4949409;28;20035;-80
2021/03/28 12:32:38;;;;;;;7.18;2.22;;;;;;;;;;4952200;28;20382;-80
2021/03/28 12:35:25;;;;;;;7.32;2.35;;;;;;;;;;4948257;28;20312;-82
2021/03/28 12:38:16;;;;;;;6.32;2.63;;;;;;;;;;4959891;28;20380;-83
2021/03/28 12:41:13;;;;;;;6.65;2.65;;;;;;;;;;4962816;28;20060;-79
2021/03/28 12:44:07;;;;;;;6.70;2.10;;;;;;;;;;4950316;28;20557;-79
2021/03/28 12:46:55;;;;;;;5.38;2.17;;;;;;;;;;4955469;28;20499;-80
2021/03/28 12:49:46;;;;;;;5.63;2.42;;;;;;;;;;4962154;28;20661;-80
2021/03/28 12:52:34;;;;;;;6.55;2.58;;;;;;;;;;4963182;28;20381;-81
2021/03/28 12:55:28;;;;;;;8.18;2.25;;;;;;;;;;4947675;28;20115;-79
2021/03/28 12:58:18;;;;;;;6.90;2.67;;;;;;;;;;4963052;28;20129;-78
2021/03/28 13:01:36;;;;;;;8.38;2.50;;;;;;;;;;4942397;28;20027;-84
2021/03/28 13:04:23;;;;;;;5.78;2.42;;;;;;;;;;4935900;28;20035;-80
2021/03/28 13:07:28;;;;;;;6.45;2.47;;;;;;;;;;4962754;28;20038;-78
2021/03/28 13:10:20;;;;;;;6.05;2.50;;;;;;;;;;4943480;28;20451;-78
2021/03/28 13:13:14;;;;;;;4.97;2.10;;;;;;;;;;4948095;28;20022;-87
2021/03/28 13:16:19;;;;;;;5.80;2.20;;;;;;;;;;4963244;28;20038;-86
2021/03/28 13:19:05;;;;;;;7.00;2.78;;;;;;;;;;4950806;28;20033;-87
2021/03/28 13:21:56;;;;;;;7.13;2.20;;;;;;;;;;4956010;28;20030;-85
2021/03/28 13:24:41;;;;;;;7.85;2.15;;;;;;;;;;4946289;28;20105;-85
2021/03/28 13:27:27;;;;;;;7.13;2.85;;;;;;;;;;4945222;28;20099;-85
2021/03/28 13:30:23;;;;;;;9.23;2.30;;;;;;;;;;4960786;28;20106;-85
2021/03/28 13:33:31;;;;;;;4.82;2.13;;;;;;;;;;4957004;28;20023;-84
2021/03/28 13:36:25;;;;;;;5.95;1.67;;;;;;;;;;4947270;28;20184;-85
2021/03/28 13:39:15;;;;;;;5.15;2.05;;;;;;;;;;4966075;28;20019;-86
2021/03/28 13:42:03;;;;;;;4.65;1.90;;;;;;;;;;4959644;28;20472;-86
2021/03/28 13:44:57;;;;;;;8.25;2.03;;;;;;;;;;4956704;28;20089;-86
2021/03/28 13:47:45;;;;;;;4.63;1.80;;;;;;;;;;4940938;28;20054;-86
2021/03/28 13:50:35;;;;;;;5.05;2.10;;;;;;;;;;4960861;28;20029;-86
2021/03/28 13:53:23;;;;;;;6.38;2.20;;;;;;;;;;4960254;28;20393;-86
2021/03/28 13:56:24;;;;;;;6.57;2.38;;;;;;;;;;4928126;28;20097;-86
2021/03/28 13:59:15;;;;;;;7.13;2.28;;;;;;;;;;4971017;28;20507;-84
2021/03/28 14:02:30;;;;;;;6.80;2.38;;;;;;;;;;4984573;28;20495;-86
2021/03/28 14:05:17;;;;;;;7.18;2.50;;;;;;;;;;4964541;28;20045;-86
2021/03/28 14:08:02;;;;;;;5.25;1.88;;;;;;;;;;4966479;28;20022;-86
2021/03/28 14:10:58;;;;;;;5.15;1.88;;;;;;;;;;4982319;28;20030;-85
2021/03/28 14:13:44;;;;;;;9.25;2.60;;;;;;;;;;4962840;28;20145;-86
2021/03/28 14:16:36;;;;;;;6.18;2.05;;;;;;;;;;4973006;28;20031;-86
2021/03/28 14:19:26;;;;;;;7.78;2.28;;;;;;;;;;4963099;28;20022;-85
2021/03/28 14:22:30;;;;;;;5.75;2.28;;;;;;;;;;4967494;28;20053;-85
2021/03/28 14:25:34;;;;;;;6.25;2.03;;;;;;;;;;4976296;28;20030;-85
2021/03/28 14:28:50;;;;;;;4.60;1.80;;;;;;;;;;4974186;28;20591;-86
2021/03/28 14:31:37;;;;;;;8.02;2.83;;;;;;;;;;4970562;28;20093;-86
2021/03/28 14:34:25;;;;;;;8.23;2.50;;;;;;;;;;4976513;28;20538;-86
2021/03/28 14:37:16;;;;;;;5.22;2.08;;;;;;;;;;4982526;28;20665;-86
2021/03/28 14:40:20;;;;;;;8.85;2.75;;;;;;;;;;4980851;28;20022;-86
2021/03/28 14:43:17;;;;;;;7.45;2.08;;;;;;;;;;4967574;28;20057;-85
2021/03/28 14:46:21;;;;;;;6.45;2.35;;;;;;;;;;4968193;28;20014;-86
2021/03/28 14:49:24;;;;;;;5.05;2.28;;;;;;;;;;4981424;28;20310;-87
2021/03/28 14:52:23;;;;;;;7.82;2.58;;;;;;;;;;4971750;28;20029;-87
2021/03/28 14:55:11;;;;;;;8.15;2.13;;;;;;;;;;4972843;28;20381;-87
2021/03/28 14:58:02;;;;;;;6.80;2.42;;;;;;;;;;4970661;28;20104;-85
2021/03/28 15:00:58;;;;;;;5.05;2.30;;;;;;;;;;4995346;28;20714;-87
2021/03/28 15:04:08;;;;;;;6.65;1.92;;;;;;;;;;4998136;28;20026;-87
2021/03/28 15:06:53;;;;;;;4.93;2.00;;;;;;;;;;4970567;28;20443;-86
2021/03/28 15:09:42;;;;;;;6.70;2.70;;;;;;;;;;4984615;28;20481;-87
2021/03/28 15:12:37;;;;;;;5.20;2.03;;;;;;;;;;4989670;28;20102;-86
2021/03/28 15:15:28;;;;;;;7.40;2.42;;;;;;;;;;4996133;28;20116;-85
2021/03/28 15:18:16;;;;;;;4.50;2.13;;;;;;;;;;4997165;28;20022;-87
2021/03/28 15:21:25;;;;;;;4.68;1.65;;;;;;;;;;4983876;28;20133;-87
2021/03/28 15:24:10;;;;;;;4.97;1.73;;;;;;;;;;4970217;28;20511;-85
2021/03/28 15:27:17;;;;;;;9.05;2.28;;;;;;;;;;4992742;28;20449;-85
2021/03/28 15:30:02;;;;;;;7.78;2.35;;;;;;;;;;4981709;28;20065;-85
2021/03/28 15:32:59;;;;;;;5.38;1.65;;;;;;;;;;4972691;28;20062;-87
2021/03/28 15:35:44;;;;;;;9.10;2.28;;;;;;;;;;4983386;28;20050;-85
2021/03/28 15:38:33;;;;;;;6.35;2.42;;;;;;;;;;4985012;28;20125;-83
2021/03/28 15:41:37;;;;;;;6.32;2.22;;;;;;;;;;4979407;28;20546;-82
2021/03/28 15:44:47;;;;;;;6.05;2.15;;;;;;;;;;4976973;28;20026;-85
2021/03/28 15:47:50;;;;;;;9.68;2.33;;;;;;;;;;4981390;28;20022;-85
2021/03/28 15:50:46;;;;;;;8.45;2.63;;;;;;;;;;4997517;28;20030;-84
2021/03/28 15:53:47;;;;;;;9.25;2.40;;;;;;;;;;4982472;28;20110;-82
2021/03/28 15:56:39;;;;;;;7.78;2.25;;;;;;;;;;4986476;28;20037;-86
2021/03/28 15:59:34;;;;;;;7.13;2.35;;;;;;;;;;5000593;28;20069;-84
2021/03/28 16:02:27;;;;;;;7.50;1.98;;;;;;;;;;4982489;28;20026;-85
2021/03/28 16:05:31;;;;;;;6.78;2.33;;;;;;;;;;4999227;28;20384;-83
2021/03/28 16:08:27;;;;;;;9.02;2.15;;;;;;;;;;4985752;28;20477;-84
2021/03/28 16:11:12;;;;;;;7.38;2.38;;;;;;;;;;4985870;28;20034;-85
2021/03/28 16:14:16;;;;;;;8.43;2.40;;;;;;;;;;5001238;28;20559;-84
2021/03/28 16:17:10;;;;;;;9.88;2.90;;;;;;;;;;4985011;28;20038;-84
2021/03/28 16:20:01;;;;;;;7.55;2.53;;;;;;;;;;4999939;28;20045;-85
2021/03/28 16:22:56;;;;;;;5.03;2.15;;;;;;;;;;4983329;28;20512;-86
2021/03/28 16:26:01;;;;;;;7.80;2.78;;;;;;;;;;4973986;28;20034;-84
2021/03/28 16:28:58;;;;;;;5.25;1.63;;;;;;;;;;4987716;28;20116;-79
2021/03/28 16:32:12;;;;;;;8.50;2.80;;;;;;;;;;4989170;28;20022;-89
2021/03/28 16:35:16;;;;;;;6.90;1.98;;;;;;;;;;4972717;28;20105;-88
2021/03/28 16:38:01;;;;;;;8.65;2.15;;;;;;;;;;4986462;28;20048;-85
2021/03/28 16:40:58;;;;;;;7.40;2.30;;;;;;;;;;4979846;28;20018;-85
2021/03/28 16:43:47;;;;;;;4.45;1.77;;;;;;;;;;4974581;28;20476;-88
2021/03/28 16:46:41;;;;;;;7.35;2.17;;;;;;;;;;4981306;28;20026;-86
2021/03/28 16:49:45;;;;;;;6.40;2.30;;;;;;;;;;4960596;28;21354;-82
2021/03/28 16:52:55;;;;;;;6.25;2.30;;;;;;;;;;4982516;28;20026;-82
2021/03/28 16:55:42;;;;;;;8.07;2.10;;;;;;;;;;4984900;28;20390;-82
2021/03/28 16:58:42;;;;;;;8.40;2.47;;;;;;;;;;4969368;28;20046;-81
2021/03/28 17:01:30;;;;;;;6.05;2.67;;;;;;;;;;4949681;28;20102;-84
2021/03/28 17:04:15;;;;;;;6.13;2.03;;;;;;;;;;4967529;28;20120;-84
2021/03/28 17:07:05;;;;;;;7.43;2.08;;;;;;;;;;4963066;28;20034;-84
2021/03/28 17:10:12;;;;;;;8.27;2.53;;;;;;;;;;4948876;28;20473;-84
2021/03/28 17:13:00;;;;;;;5.30;2.17;;;;;;;;;;4951151;28;20015;-87
2021/03/28 17:15:47;;;;;;;7.10;2.42;;;;;;;;;;4949723;28;20428;-87
2021/03/28 17:18:43;;;;;;;8.77;2.17;;;;;;;;;;4965949;28;20072;-84
2021/03/28 17:21:35;;;;;;;7.68;3.17;;;;;;;;;;4952634;28;20165;-87
2021/03/28 17:24:41;;;;;;;;;;;;;;;;;;;;;
2021/03/28 17:37:59;;;;;;;8.43;3.67;;;;;;;;;;4885328;29;20042;-81
2021/03/28 17:40:52;;;;;;;55.78;33.25;;;;;;;;;;4876172;29;20036;-83
2021/03/28 17:43:49;;;;;;;75.90;42.58;;;;;;;;;;4890875;29;20042;-84
2021/03/28 17:53:57;;;;;;;7.30;2.58;;;;;;;;;;4943233;28;20409;-85
2021/03/28 17:57:26;;;;;;;11.18;2.88;;;;;;;;;;4965969;28;21309;-87